createdAt,value
2023-01-03T00:00:01.155Z,84.4
2023-01-03T00:01:00.394Z,84.3
2023-01-03T00:02:00.528Z,84.2
2023-01-03T00:03:00.616Z,83.9
2023-01-03T00:04:00.803Z,83.8
2023-01-03T00:05:00.918Z,83.8
2023-01-03T00:06:01.064Z,83.7
2023-01-03T00:07:01.190Z,83.4
2023-01-03T00:08:00.358Z,83.4
2023-01-03T00:09:00.520Z,83.4
2023-01-03T00:10:00.656Z,83.1
2023-01-03T00:11:00.783Z,82.8
2023-01-03T00:12:00.953Z,82.8
2023-01-03T00:13:01.081Z,82.7
2023-01-03T00:14:01.237Z,82.9
2023-01-03T00:15:00.379Z,83
2023-01-03T00:16:00.517Z,83
2023-01-03T00:17:00.797Z,82.9
2023-01-03T00:18:00.845Z,82.8
2023-01-03T00:19:00.968Z,82.9
2023-01-03T00:20:01.143Z,83
2023-01-03T00:22:00.372Z,83
2023-01-03T00:23:00.521Z,82.9
2023-01-03T00:24:00.661Z,82.9
2023-01-03T00:25:00.839Z,82.7
2023-01-03T00:26:00.965Z,82.8
2023-01-03T00:27:01.115Z,82.8
2023-01-03T00:28:01.266Z,82.9
2023-01-03T00:29:00.401Z,82.9
2023-01-03T00:30:00.548Z,82.9
2023-01-03T00:31:00.767Z,82.9
2023-01-03T00:32:00.846Z,82.9
2023-01-03T00:33:01.013Z,82.9
2023-01-03T00:34:01.152Z,82.9
2023-01-03T00:35:04.992Z,83
2023-01-03T00:36:00.438Z,83
2023-01-03T00:37:00.589Z,83.1
2023-01-03T00:38:00.741Z,83.1
2023-01-03T00:39:00.903Z,83.2
2023-01-03T00:40:01.057Z,83.3
2023-01-03T00:41:01.172Z,83.5
2023-01-03T00:42:00.326Z,83.7
2023-01-03T00:43:00.467Z,83.8
2023-01-03T00:44:00.605Z,83.9
2023-01-03T00:45:00.776Z,83.9
2023-01-03T00:46:01.049Z,84
2023-01-03T00:47:01.052Z,84.1
2023-01-03T00:48:01.205Z,84.1
2023-01-03T00:49:00.349Z,84
2023-01-03T00:50:00.525Z,84
2023-01-03T00:51:00.642Z,84.1
2023-01-03T00:52:00.798Z,84
2023-01-03T00:53:00.932Z,84
2023-01-03T00:54:01.096Z,84
2023-01-03T00:55:01.264Z,84
2023-01-03T00:56:00.377Z,84
2023-01-03T00:57:00.529Z,84
2023-01-03T00:58:00.664Z,84
2023-01-03T00:59:00.815Z,83.9
2023-01-03T01:00:00.998Z,83.9
2023-01-03T01:01:01.163Z,83.8
2023-01-03T01:02:00.376Z,83.9
2023-01-03T01:03:00.723Z,83.9
2023-01-03T01:04:00.614Z,83.9
2023-01-03T01:05:00.739Z,83.9
2023-01-03T01:06:00.854Z,83.9
2023-01-03T01:07:01.025Z,84
2023-01-03T01:08:01.177Z,84
2023-01-03T01:09:00.319Z,84
2023-01-03T01:10:00.517Z,84
2023-01-03T01:11:00.619Z,84.1
2023-01-03T01:12:00.776Z,84.1
2023-01-03T01:13:00.909Z,84.1
2023-01-03T01:14:01.064Z,84.2
2023-01-03T01:15:01.233Z,84.2
2023-01-03T01:16:00.364Z,84.3
2023-01-03T01:17:00.497Z,84.3
2023-01-03T01:18:00.652Z,84.4
2023-01-03T01:19:00.806Z,84.2
2023-01-03T01:20:00.959Z,84
2023-01-03T01:21:01.103Z,83.8
2023-01-03T01:22:01.245Z,83.6
2023-01-03T01:23:00.402Z,83.4
2023-01-03T01:24:00.555Z,83.4
2023-01-03T01:25:00.717Z,83.3
2023-01-03T01:26:00.850Z,83.3
2023-01-03T01:27:01.018Z,83.1
2023-01-03T01:28:01.183Z,83.1
2023-01-03T01:29:00.319Z,83
2023-01-03T01:30:00.473Z,82.7
2023-01-03T01:31:00.668Z,82.6
2023-01-03T01:32:00.755Z,82.5
2023-01-03T01:33:00.902Z,82.5
2023-01-03T01:34:01.065Z,82.6
2023-01-03T01:35:01.216Z,82.5
2023-01-03T01:36:00.356Z,82.3
2023-01-03T01:37:00.509Z,82.4
2023-01-03T01:38:00.648Z,82.3
2023-01-03T01:39:00.841Z,82.2
2023-01-03T01:40:00.960Z,82.2
2023-01-03T01:41:01.100Z,82.2
2023-01-03T01:42:01.249Z,82.1
2023-01-03T01:43:00.405Z,81.9
2023-01-03T01:44:00.549Z,81.9
2023-01-03T01:45:00.728Z,82.1
2023-01-03T01:46:00.867Z,81.8
2023-01-03T01:47:00.988Z,82
2023-01-03T01:48:01.133Z,82.2
2023-01-03T01:49:00.288Z,82.2
2023-01-03T01:50:00.465Z,81.9
2023-01-03T01:51:00.585Z,81.8
2023-01-03T01:52:00.732Z,81.8
2023-01-03T01:53:00.883Z,81.4
2023-01-03T01:54:01.024Z,81.7
2023-01-03T01:55:01.205Z,81.9
2023-01-03T01:56:00.313Z,81.7
2023-01-03T01:57:00.482Z,81.7
2023-01-03T01:58:00.612Z,81.5
2023-01-03T01:59:00.753Z,81.4
2023-01-03T02:00:00.924Z,81.3
2023-01-03T02:01:01.055Z,81.3
2023-01-03T02:02:01.372Z,81.2
2023-01-03T02:03:00.510Z,81.2
2023-01-03T02:04:00.493Z,81.1
2023-01-03T02:05:00.656Z,80.8
2023-01-03T02:06:00.797Z,80.7
2023-01-03T02:07:00.926Z,80.7
2023-01-03T02:08:01.086Z,80.7
2023-01-03T02:09:01.252Z,80.6
2023-01-03T02:10:00.396Z,80.7
2023-01-03T02:11:00.556Z,80.7
2023-01-03T02:12:00.687Z,80.8
2023-01-03T02:13:00.828Z,80.7
2023-01-03T02:14:00.986Z,80.8
2023-01-03T02:15:01.142Z,81
2023-01-03T02:16:00.347Z,81
2023-01-03T02:17:00.433Z,81
2023-01-03T02:18:00.597Z,80.9
2023-01-03T02:19:00.753Z,81
2023-01-03T02:20:00.897Z,81.1
2023-01-03T02:21:01.065Z,81.3
2023-01-03T02:22:01.212Z,81.4
2023-01-03T02:23:00.325Z,81.6
2023-01-03T02:24:00.471Z,81.8
2023-01-03T02:25:00.631Z,81.8
2023-01-03T02:26:00.770Z,82.1
2023-01-03T02:27:00.919Z,82.2
2023-01-03T02:28:01.065Z,82.3
2023-01-03T02:29:01.207Z,82.6
2023-01-03T02:30:00.354Z,82.7
2023-01-03T02:31:00.538Z,83
2023-01-03T02:32:00.668Z,83.1
2023-01-03T02:33:00.808Z,83.1
2023-01-03T02:34:00.940Z,83.2
2023-01-03T02:35:01.107Z,83.5
2023-01-03T02:36:01.286Z,83.7
2023-01-03T02:37:00.403Z,83.9
2023-01-03T02:38:00.561Z,84
2023-01-03T02:39:00.699Z,84.1
2023-01-03T02:40:00.842Z,84.2
2023-01-03T02:41:01.008Z,84.3
2023-01-03T02:42:01.137Z,84.3
2023-01-03T02:43:00.289Z,84.2
2023-01-03T02:44:00.427Z,84.2
2023-01-03T02:45:00.577Z,84.1
2023-01-03T02:46:00.887Z,84.1
2023-01-03T02:47:00.930Z,84.1
2023-01-03T02:48:01.020Z,84.1
2023-01-03T02:49:01.161Z,83.9
2023-01-03T02:50:00.313Z,83.8
2023-01-03T02:51:00.487Z,83.8
2023-01-03T02:52:00.615Z,83.8
2023-01-03T02:53:00.809Z,83.7
2023-01-03T02:54:00.913Z,83.7
2023-01-03T02:55:01.082Z,83.7
2023-01-03T02:56:01.225Z,83.7
2023-01-03T02:57:00.367Z,83.6
2023-01-03T02:58:00.554Z,83.6
2023-01-03T02:59:00.678Z,83.6
2023-01-03T03:00:00.819Z,83.7
2023-01-03T03:01:00.959Z,83.7
2023-01-03T03:02:01.168Z,83.8
2023-01-03T03:03:01.331Z,83.8
2023-01-03T03:04:00.525Z,83.9
2023-01-03T03:05:00.535Z,84
2023-01-03T03:06:00.683Z,84
2023-01-03T03:07:00.841Z,84
2023-01-03T03:08:00.997Z,84.1
2023-01-03T03:09:01.161Z,84.2
2023-01-03T03:10:00.291Z,84.3
2023-01-03T03:11:00.419Z,84.4
2023-01-03T03:12:00.566Z,84.6
2023-01-03T03:13:00.710Z,84.6
2023-01-03T03:14:00.885Z,84.5
2023-01-03T03:15:01.003Z,84.4
2023-01-03T03:16:01.190Z,84.3
2023-01-03T03:17:00.303Z,84.3
2023-01-03T03:18:00.456Z,84.2
2023-01-03T03:19:00.612Z,84.1
2023-01-03T03:20:06.300Z,84
2023-01-03T03:21:00.936Z,84.1
2023-01-03T03:22:01.048Z,84.3
2023-01-03T03:23:01.190Z,84.7
2023-01-03T03:24:00.335Z,84.8
2023-01-03T03:25:00.490Z,85
2023-01-03T03:26:00.659Z,85.3
2023-01-03T03:27:00.775Z,85.6
2023-01-03T03:28:00.925Z,85.8
2023-01-03T03:29:01.069Z,85.9
2023-01-03T03:30:01.253Z,86
2023-01-03T03:31:00.512Z,86.1
2023-01-03T03:32:00.524Z,86.1
2023-01-03T03:33:00.661Z,85.9
2023-01-03T03:34:00.816Z,85.8
2023-01-03T03:35:00.958Z,85.9
2023-01-03T03:36:01.127Z,86.1
2023-01-03T03:37:00.269Z,86.4
2023-01-03T03:38:00.423Z,86.4
2023-01-03T03:39:00.604Z,86.3
2023-01-03T03:40:00.717Z,86.2
2023-01-03T03:41:00.861Z,86
2023-01-03T03:42:01.016Z,85.9
2023-01-03T03:43:01.198Z,85.7
2023-01-03T03:44:00.351Z,85.5
2023-01-03T03:45:01.807Z,85.4
2023-01-03T03:46:00.621Z,85.3
2023-01-03T03:47:04.232Z,85.2
2023-01-03T03:48:00.925Z,85.1
2023-01-03T03:49:01.088Z,85
2023-01-03T03:50:01.216Z,85
2023-01-03T03:51:00.378Z,84.9
2023-01-03T03:52:00.519Z,84.9
2023-01-03T03:53:00.652Z,84.9
2023-01-03T03:54:00.823Z,84.8
2023-01-03T03:55:00.960Z,84.8
2023-01-03T03:56:01.119Z,84.7
2023-01-03T03:57:01.254Z,84.7
2023-01-03T03:58:00.402Z,84.7
2023-01-03T03:59:00.563Z,84.7
2023-01-03T04:00:00.716Z,84.6
2023-01-03T04:01:00.846Z,84.6
2023-01-03T04:02:01.149Z,84.7
2023-01-03T04:03:01.277Z,84.8
2023-01-03T04:04:00.482Z,84.9
2023-01-03T04:05:00.472Z,85
2023-01-03T04:06:00.588Z,85.1
2023-01-03T04:07:00.748Z,85.1
2023-01-03T04:08:00.887Z,85.2
2023-01-03T04:09:01.042Z,85.3
2023-01-03T04:10:01.197Z,85.3
2023-01-03T04:11:00.336Z,85.2
2023-01-03T04:12:00.475Z,85.2
2023-01-03T04:13:00.620Z,85.2
2023-01-03T04:14:00.769Z,85.1
2023-01-03T04:15:00.934Z,85.1
2023-01-03T04:16:01.130Z,85.1
2023-01-03T04:17:01.201Z,85.2
2023-01-03T04:18:00.361Z,85.2
2023-01-03T04:19:00.511Z,85.2
2023-01-03T04:20:00.669Z,85.2
2023-01-03T04:21:00.803Z,85.1
2023-01-03T04:22:00.953Z,85.2
2023-01-03T04:23:01.094Z,85.3
2023-01-03T04:24:01.248Z,85.4
2023-01-03T04:25:00.411Z,85.5
2023-01-03T04:26:00.549Z,85.5
2023-01-03T04:27:00.687Z,85.6
2023-01-03T04:28:00.838Z,85.6
2023-01-03T04:29:00.983Z,85.7
2023-01-03T04:30:01.147Z,85.7
2023-01-03T04:31:00.290Z,85.8
2023-01-03T04:32:00.520Z,85.8
2023-01-03T04:33:00.575Z,85.9
2023-01-03T04:34:00.735Z,85.9
2023-01-03T04:35:00.893Z,86
2023-01-03T04:36:01.037Z,86.1
2023-01-03T04:37:01.165Z,86.1
2023-01-03T04:38:00.309Z,86.1
2023-01-03T04:39:00.471Z,86
2023-01-03T04:40:00.667Z,85.9
2023-01-03T04:41:00.763Z,85.8
2023-01-03T04:42:00.903Z,85.9
2023-01-03T04:43:01.033Z,86.1
2023-01-03T04:44:01.189Z,86.2
2023-01-03T04:45:00.370Z,86.3
2023-01-03T04:46:00.591Z,86.3
2023-01-03T04:47:00.627Z,86.4
2023-01-03T04:48:00.770Z,86.5
2023-01-03T04:49:00.923Z,86.6
2023-01-03T04:50:01.066Z,86.5
2023-01-03T04:51:01.240Z,86.6
2023-01-03T04:52:00.375Z,86.7
2023-01-03T04:53:00.504Z,86.8
2023-01-03T04:54:00.643Z,86.7
2023-01-03T04:55:00.802Z,86.8
2023-01-03T04:56:00.970Z,86.8
2023-01-03T04:57:01.097Z,86.8
2023-01-03T04:58:01.229Z,86.9
2023-01-03T04:59:00.374Z,87
2023-01-03T05:00:00.523Z,87
2023-01-03T05:01:00.718Z,87.1
2023-01-03T05:02:00.904Z,87.2
2023-01-03T05:03:00.953Z,87.1
2023-01-03T05:04:01.166Z,87.1
2023-01-03T05:05:01.239Z,87
2023-01-03T05:06:00.411Z,86.9
2023-01-03T05:07:00.535Z,86.9
2023-01-03T05:08:00.698Z,86.8
2023-01-03T05:09:00.837Z,86.8
2023-01-03T05:10:00.990Z,86.5
2023-01-03T05:11:01.158Z,86.4
2023-01-03T05:12:00.289Z,86.3
2023-01-03T05:13:00.434Z,86.1
2023-01-03T05:14:00.594Z,86.1
2023-01-03T05:15:00.765Z,86
2023-01-03T05:16:01.026Z,86
2023-01-03T05:17:01.071Z,86
2023-01-03T05:18:01.168Z,85.9
2023-01-03T05:19:00.327Z,85.9
2023-01-03T05:20:00.480Z,85.7
2023-01-03T05:21:00.648Z,85.6
2023-01-03T05:22:00.777Z,85.4
2023-01-03T05:23:00.918Z,85.4
2023-01-03T05:24:01.094Z,85.3
2023-01-03T05:25:01.226Z,85.3
2023-01-03T05:26:00.400Z,85.1
2023-01-03T05:27:00.518Z,85
2023-01-03T05:28:00.672Z,85
2023-01-03T05:29:00.810Z,84.9
2023-01-03T05:30:00.970Z,84.9
2023-01-03T05:31:01.161Z,84.8
2023-01-03T05:32:01.307Z,84.8
2023-01-03T05:33:00.397Z,84.9
2023-01-03T05:34:00.548Z,84.9
2023-01-03T05:35:00.690Z,84.9
2023-01-03T05:36:00.876Z,84.9
2023-01-03T05:37:00.993Z,84.6
2023-01-03T05:38:01.143Z,84.6
2023-01-03T05:39:00.300Z,84.4
2023-01-03T05:40:00.423Z,84.1
2023-01-03T05:41:00.596Z,84.1
2023-01-03T05:42:00.757Z,84.2
2023-01-03T05:43:00.867Z,84
2023-01-03T05:44:01.028Z,84.2
2023-01-03T05:45:01.178Z,84.2
2023-01-03T05:46:00.423Z,84.1
2023-01-03T05:47:00.532Z,84
2023-01-03T05:48:00.630Z,83.9
2023-01-03T05:49:00.786Z,84
2023-01-03T05:50:00.962Z,84
2023-01-03T05:51:01.061Z,83.9
2023-01-03T05:52:01.197Z,83.9
2023-01-03T05:53:00.342Z,83.8
2023-01-03T05:54:00.488Z,83.8
2023-01-03T05:55:00.649Z,83.7
2023-01-03T05:56:00.779Z,83.6
2023-01-03T05:57:00.938Z,83.7
2023-01-03T05:58:01.091Z,83.7
2023-01-03T05:59:01.235Z,83.5
2023-01-03T06:00:00.426Z,83.5
2023-01-03T06:01:00.517Z,83.3
2023-01-03T06:02:00.842Z,83.3
2023-01-03T06:03:00.879Z,83.1
2023-01-03T06:04:00.975Z,82.9
2023-01-03T06:05:01.139Z,82.9
2023-01-03T06:06:00.260Z,82.9
2023-01-03T06:07:00.434Z,83
2023-01-03T06:08:00.568Z,83
2023-01-03T06:09:00.721Z,83
2023-01-03T06:10:00.873Z,83
2023-01-03T06:11:01.003Z,83
2023-01-03T06:12:01.140Z,83.1
2023-01-03T06:13:00.297Z,83.1
2023-01-03T06:14:00.440Z,83.1
2023-01-03T06:15:00.617Z,83.2
2023-01-03T06:16:00.746Z,83.3
2023-01-03T06:17:01.001Z,83.3
2023-01-03T06:18:01.040Z,83.4
2023-01-03T06:19:01.190Z,83.5
2023-01-03T06:20:00.346Z,83.6
2023-01-03T06:21:00.492Z,83.7
2023-01-03T06:22:03.291Z,83.9
2023-01-03T06:23:00.763Z,84
2023-01-03T06:24:00.902Z,84.2
2023-01-03T06:25:01.066Z,84.3
2023-01-03T06:26:01.202Z,84.3
2023-01-03T06:27:00.342Z,84.4
2023-01-03T06:28:00.503Z,84.3
2023-01-03T06:29:00.648Z,84.3
2023-01-03T06:30:00.811Z,84.2
2023-01-03T06:31:01.027Z,84.2
2023-01-03T06:32:05.257Z,84.2
2023-01-03T06:33:01.259Z,84.2
2023-01-03T06:34:00.397Z,84.3
2023-01-03T06:35:00.540Z,84.3
2023-01-03T06:36:00.680Z,84.4
2023-01-03T06:37:00.852Z,84.6
2023-01-03T06:38:00.995Z,84.6
2023-01-03T06:39:01.139Z,84.7
2023-01-03T06:40:00.287Z,84.7
2023-01-03T06:41:00.426Z,84.9
2023-01-03T06:42:00.606Z,84.9
2023-01-03T06:43:00.732Z,85
2023-01-03T06:44:00.882Z,84.8
2023-01-03T06:45:01.023Z,84.7
2023-01-03T06:46:01.259Z,84.6
2023-01-03T06:47:00.317Z,84.7
2023-01-03T06:48:00.449Z,84.8
2023-01-03T06:49:00.602Z,85
2023-01-03T06:50:00.747Z,85
2023-01-03T06:51:00.905Z,85.2
2023-01-03T06:52:01.080Z,85.2
2023-01-03T06:53:01.195Z,85.3
2023-01-03T06:54:00.349Z,85.4
2023-01-03T06:55:00.527Z,85.5
2023-01-03T06:56:00.664Z,85.7
2023-01-03T06:57:00.819Z,86
2023-01-03T06:58:00.928Z,86.3
2023-01-03T06:59:01.094Z,86.3
2023-01-03T07:00:01.249Z,86.3
2023-01-03T07:01:00.440Z,86.4
2023-01-03T07:02:00.715Z,86.4
2023-01-03T07:03:04.324Z,86.1
2023-01-03T07:04:00.902Z,85.9
2023-01-03T07:05:00.993Z,85.9
2023-01-03T07:06:01.134Z,85.5
2023-01-03T07:07:00.287Z,85.2
2023-01-03T07:08:00.465Z,85.1
2023-01-03T07:09:00.600Z,84.9
2023-01-03T07:10:00.768Z,84.7
2023-01-03T07:11:00.899Z,84.8
2023-01-03T07:12:01.061Z,84.8
2023-01-03T07:13:01.217Z,84.7
2023-01-03T07:14:00.380Z,84.6
2023-01-03T07:15:00.539Z,84.7
2023-01-03T07:16:00.676Z,84.7
2023-01-03T07:17:00.787Z,84.6
2023-01-03T07:18:00.921Z,84.6
2023-01-03T07:19:01.098Z,84.7
2023-01-03T07:20:01.227Z,84.7
2023-01-03T07:21:00.379Z,84.7
2023-01-03T07:22:00.518Z,84.7
2023-01-03T07:23:00.678Z,84.7
2023-01-03T07:24:00.824Z,84.6
2023-01-03T07:25:00.992Z,84.7
2023-01-03T07:26:01.112Z,84.7
2023-01-03T07:27:01.278Z,84.8
2023-01-03T07:28:05.548Z,84.9
2023-01-03T07:29:00.576Z,85.1
2023-01-03T07:30:00.762Z,85.3
2023-01-03T07:31:00.933Z,85.3
2023-01-03T07:32:01.011Z,85.4
2023-01-03T07:33:01.166Z,85.3
2023-01-03T07:34:00.309Z,85.4
2023-01-03T07:35:00.496Z,85.5
2023-01-03T07:36:03.599Z,85.6
2023-01-03T07:37:00.755Z,85.6
2023-01-03T07:38:00.912Z,85.7
2023-01-03T07:39:01.070Z,85.7
2023-01-03T07:40:01.238Z,85.7
2023-01-03T07:41:00.364Z,85.9
2023-01-03T07:42:00.507Z,86
2023-01-03T07:43:00.651Z,86
2023-01-03T07:44:00.806Z,86
2023-01-03T07:45:00.964Z,86.1
2023-01-03T07:46:01.198Z,86.3
2023-01-03T07:47:01.272Z,86.4
2023-01-03T07:48:00.406Z,86.6
2023-01-03T07:49:00.554Z,86.6
2023-01-03T07:50:00.701Z,86.6
2023-01-03T07:51:00.852Z,86.7
2023-01-03T07:52:00.984Z,86.8
2023-01-03T07:53:01.130Z,86.9
2023-01-03T07:54:00.270Z,87
2023-01-03T07:55:00.419Z,87.1
2023-01-03T07:56:00.584Z,87.1
2023-01-03T07:57:00.723Z,87.1
2023-01-03T07:58:00.869Z,87.1
2023-01-03T07:59:01.022Z,87.1
2023-01-03T08:00:01.185Z,87.2
2023-01-03T08:01:00.313Z,87.3
2023-01-03T08:02:00.561Z,87.3
2023-01-03T08:03:00.689Z,87.4
2023-01-03T08:04:00.769Z,87.3
2023-01-03T08:05:00.954Z,87.3
2023-01-03T08:06:01.062Z,87.2
2023-01-03T08:07:01.195Z,87.2
2023-01-03T08:08:00.354Z,87.2
2023-01-03T08:09:05.845Z,87.3
2023-01-03T08:10:00.632Z,87.3
2023-01-03T08:11:00.785Z,87.4
2023-01-03T08:12:00.922Z,87.4
2023-01-03T08:13:01.061Z,87.4
2023-01-03T08:14:01.208Z,87.5
2023-01-03T08:15:00.372Z,87.4
2023-01-03T08:16:00.563Z,87.3
2023-01-03T08:17:00.653Z,87.2
2023-01-03T08:18:00.811Z,87.2
2023-01-03T08:19:00.946Z,87.2
2023-01-03T08:20:01.110Z,87.2
2023-01-03T08:21:01.282Z,87.2
2023-01-03T08:22:00.396Z,87.2
2023-01-03T08:23:00.552Z,87.2
2023-01-03T08:24:00.698Z,87.2
2023-01-03T08:25:00.844Z,87.2
2023-01-03T08:26:01.014Z,87.2
2023-01-03T08:27:01.190Z,87.3
2023-01-03T08:28:00.290Z,87.3
2023-01-03T08:29:00.446Z,87.4
2023-01-03T08:30:00.609Z,87.4
2023-01-03T08:31:00.793Z,87.4
2023-01-03T08:32:00.935Z,87.4
2023-01-03T08:33:01.032Z,87.3
2023-01-03T08:34:01.184Z,87.3
2023-01-03T08:35:00.340Z,87.2
2023-01-03T08:36:00.476Z,87.2
2023-01-03T08:37:00.653Z,87.1
2023-01-03T08:38:00.774Z,87.1
2023-01-03T08:39:00.915Z,87
2023-01-03T08:40:01.108Z,87
2023-01-03T08:41:01.218Z,86.9
2023-01-03T08:42:00.374Z,86.8
2023-01-03T08:43:00.514Z,86.7
2023-01-03T08:44:00.671Z,86.5
2023-01-03T08:45:00.831Z,86.4
2023-01-03T08:46:00.969Z,86.3
2023-01-03T08:47:01.208Z,86.3
2023-01-03T08:48:00.265Z,86.2
2023-01-03T08:49:00.412Z,86.2
2023-01-03T08:50:00.597Z,86.1
2023-01-03T08:51:00.723Z,86
2023-01-03T08:52:00.868Z,86
2023-01-03T08:53:01.017Z,85.9
2023-01-03T08:54:01.160Z,85.8
2023-01-03T08:55:00.353Z,85.9
2023-01-03T08:56:00.483Z,85.9
2023-01-03T08:57:00.637Z,85.9
2023-01-03T08:58:00.768Z,85.8
2023-01-03T08:59:00.903Z,85.9
2023-01-03T09:00:01.121Z,85.9
2023-01-03T09:01:01.202Z,85.9
2023-01-03T09:02:00.542Z,86
2023-01-03T09:03:00.831Z,86
2023-01-03T09:04:00.727Z,86.1
2023-01-03T09:05:00.805Z,86.2
2023-01-03T09:06:00.936Z,86.2
2023-01-03T09:07:01.098Z,86.2
2023-01-03T09:08:01.248Z,86.2
2023-01-03T09:09:00.420Z,86.3
2023-01-03T09:10:00.546Z,86.2
2023-01-03T09:11:00.707Z,86.3
2023-01-03T09:12:00.842Z,86.2
2023-01-03T09:13:01.004Z,86.1
2023-01-03T09:14:01.171Z,86.1
2023-01-03T09:15:00.323Z,86.1
2023-01-03T09:16:00.497Z,85.9
2023-01-03T09:17:00.663Z,85.9
2023-01-03T09:18:00.719Z,85.8
2023-01-03T09:19:00.904Z,85.7
2023-01-03T09:20:01.029Z,85.6
2023-01-03T09:21:01.162Z,85.6
2023-01-03T09:22:00.312Z,85.4
2023-01-03T09:23:00.460Z,85.7
2023-01-03T09:24:00.622Z,85.5
2023-01-03T09:25:00.761Z,85.2
2023-01-03T09:26:00.911Z,85.2
2023-01-03T09:27:01.063Z,85.2
2023-01-03T09:28:01.216Z,85.3
2023-01-03T09:29:00.369Z,85.2
2023-01-03T09:30:00.475Z,84.6
2023-01-03T09:31:00.643Z,84.6
2023-01-03T09:32:00.914Z,84.7
2023-01-03T09:33:00.957Z,84.3
2023-01-03T09:34:01.059Z,84.2
2023-01-03T09:35:01.200Z,84
2023-01-03T09:36:00.381Z,83.7
2023-01-03T09:37:00.515Z,83.8
2023-01-03T09:38:00.663Z,83.7
2023-01-03T09:39:00.808Z,83.7
2023-01-03T09:40:00.954Z,83.7
2023-01-03T09:41:01.134Z,83.6
2023-01-03T09:42:01.248Z,83.8
2023-01-03T09:43:00.417Z,84
2023-01-03T09:44:00.542Z,84
2023-01-03T09:45:00.726Z,84.1
2023-01-03T09:46:00.858Z,83.8
2023-01-03T09:47:01.092Z,83.8
2023-01-03T09:48:01.176Z,83.9
2023-01-03T09:49:00.308Z,84.1
2023-01-03T09:50:35.191Z,84
2023-01-03T09:51:19.542Z,83.6
2023-01-03T09:52:00.743Z,83.5
2023-01-03T09:53:00.904Z,83.4
2023-01-03T09:54:01.068Z,83.6
2023-01-03T09:55:01.279Z,83.9
2023-01-03T09:56:00.382Z,83.9
2023-01-03T09:57:00.495Z,83.1
2023-01-03T09:58:00.646Z,82.9
2023-01-03T09:59:00.797Z,82.8
2023-01-03T10:00:00.967Z,82.6
2023-01-03T10:01:01.177Z,81.8
2023-01-03T10:02:01.338Z,81.5
2023-01-03T10:03:00.634Z,81.6
2023-01-03T10:04:00.549Z,81.1
2023-01-03T10:05:00.699Z,81.1
2023-01-03T10:06:00.851Z,81.1
2023-01-03T10:07:00.983Z,80.7
2023-01-03T10:08:01.154Z,80.5
2023-01-03T10:09:00.278Z,80.9
2023-01-03T10:10:00.442Z,80.4
2023-01-03T10:11:00.583Z,80.3
2023-01-03T10:12:00.737Z,79.8
2023-01-03T10:13:00.888Z,80.3
2023-01-03T10:14:01.064Z,80.3
2023-01-03T10:15:01.196Z,80
2023-01-03T10:16:00.420Z,79.9
2023-01-03T10:17:00.575Z,79.7
2023-01-03T10:18:00.627Z,79.5
2023-01-03T10:19:00.769Z,79.2
2023-01-03T10:20:00.918Z,79.6
2023-01-03T10:21:01.068Z,79.2
2023-01-03T10:22:01.221Z,79.3
2023-01-03T10:23:00.382Z,79.7
2023-01-03T10:24:00.498Z,78.7
2023-01-03T10:25:00.640Z,79.2
2023-01-03T10:26:00.790Z,78.8
2023-01-03T10:27:00.941Z,78.7
2023-01-03T10:28:01.130Z,78.7
2023-01-03T10:29:01.243Z,79
2023-01-03T10:30:00.384Z,78.8
2023-01-03T10:31:07.361Z,78.8
2023-01-03T10:32:00.743Z,78.8
2023-01-03T10:33:00.885Z,78.8
2023-01-03T10:34:00.959Z,79.2
2023-01-03T10:35:01.114Z,79.2
2023-01-03T10:36:00.248Z,78.9
2023-01-03T10:37:00.389Z,78.1
2023-01-03T10:38:00.553Z,78.4
2023-01-03T10:39:00.681Z,79.2
2023-01-03T10:40:00.849Z,78.8
2023-01-03T10:41:00.985Z,77.9
2023-01-03T10:42:01.120Z,78.4
2023-01-03T10:43:00.271Z,78.4
2023-01-03T10:44:00.443Z,78.8
2023-01-03T10:45:00.560Z,78.9
2023-01-03T10:46:00.786Z,78.8
2023-01-03T10:47:00.854Z,79.1
2023-01-03T10:48:00.999Z,78.9
2023-01-03T10:49:26.622Z,78.2
2023-01-03T10:50:00.286Z,78.2
2023-01-03T10:51:00.447Z,77.4
2023-01-03T10:52:00.601Z,78
2023-01-03T10:53:00.745Z,76.7
2023-01-03T10:54:00.950Z,77.3
2023-01-03T10:55:01.088Z,77
2023-01-03T10:56:01.193Z,76.5
2023-01-03T10:57:00.346Z,76.8
2023-01-03T10:58:00.486Z,77.1
2023-01-03T10:59:00.631Z,76.9
2023-01-03T11:00:00.802Z,77.7
2023-01-03T11:01:00.943Z,76.9
2023-01-03T11:02:01.259Z,76.1
2023-01-03T11:03:01.339Z,77.1
2023-01-03T11:04:00.469Z,77.5
2023-01-03T11:05:00.509Z,78
2023-01-03T11:06:00.699Z,77.4
2023-01-03T11:07:00.809Z,77.4
2023-01-03T11:08:00.943Z,76.4
2023-01-03T11:09:01.082Z,76.9
2023-01-03T11:10:01.219Z,76.5
2023-01-03T11:11:00.384Z,76
2023-01-03T11:12:00.519Z,75.7
2023-01-03T11:13:00.693Z,75.9
2023-01-03T11:14:00.816Z,75.7
2023-01-03T11:15:01.049Z,76.6
2023-01-03T11:16:01.133Z,75.3
2023-01-03T11:17:00.358Z,75.7
2023-01-03T11:18:00.437Z,75.8
2023-01-03T11:19:00.582Z,75.5
2023-01-03T11:20:00.724Z,76
2023-01-03T11:21:00.865Z,76.9
2023-01-03T11:22:01.015Z,76.3
2023-01-03T11:23:01.177Z,76
2023-01-03T11:24:00.311Z,75.7
2023-01-03T11:25:00.451Z,75.9
2023-01-03T11:26:00.615Z,77.3
2023-01-03T11:27:00.761Z,76.3
2023-01-03T11:28:00.923Z,76.4
2023-01-03T11:29:01.054Z,75.2
2023-01-03T11:30:01.206Z,75.3
2023-01-03T11:31:00.403Z,75.9
2023-01-03T11:32:00.621Z,77.1
2023-01-03T11:33:00.691Z,76.8
2023-01-03T11:34:00.812Z,76.5
2023-01-03T11:35:24.010Z,76.7
2023-01-03T11:36:01.113Z,75.8
2023-01-03T11:37:01.261Z,75.5
2023-01-03T11:38:00.431Z,75.4
2023-01-03T11:39:00.572Z,75.3
2023-01-03T11:40:00.717Z,76.2
2023-01-03T11:41:00.880Z,76.3
2023-01-03T11:42:01.029Z,75.3
2023-01-03T11:43:01.189Z,75.2
2023-01-03T11:44:00.333Z,74.9
2023-01-03T11:45:00.479Z,76
2023-01-03T11:46:00.741Z,75.9
2023-01-03T11:47:00.762Z,73.5
2023-01-03T11:48:00.934Z,73.9
2023-01-03T11:49:01.068Z,73.4
2023-01-03T11:50:01.216Z,74.1
2023-01-03T11:51:00.356Z,75
2023-01-03T11:52:00.513Z,75.9
2023-01-03T11:53:00.673Z,75
2023-01-03T11:54:00.799Z,76.5
2023-01-03T11:55:00.948Z,75.2
2023-01-03T11:56:01.126Z,75.4
2023-01-03T11:57:01.255Z,75.1
2023-01-03T11:58:00.418Z,74.9
2023-01-03T11:59:00.540Z,74.2
2023-01-03T12:00:00.701Z,74.1
2023-01-03T12:01:00.845Z,73.8
2023-01-03T12:02:01.226Z,74.1
2023-01-03T12:03:01.208Z,73.9
2023-01-03T12:04:00.434Z,73.9
2023-01-03T12:05:00.423Z,73.7
2023-01-03T12:06:00.605Z,74.1
2023-01-03T12:07:29.033Z,74.2
2023-01-03T12:08:00.896Z,74.5
2023-01-03T12:09:01.027Z,73.7
2023-01-03T12:10:01.200Z,73.7
2023-01-03T12:11:00.364Z,74.1
2023-01-03T12:12:00.469Z,73.5
2023-01-03T12:13:00.627Z,73.9
2023-01-03T12:14:00.788Z,73.5
2023-01-03T12:15:00.972Z,73.7
2023-01-03T12:16:01.143Z,73.4
2023-01-03T12:17:01.221Z,73.5
2023-01-03T12:18:00.369Z,73.7
2023-01-03T12:19:00.532Z,73.8
2023-01-03T12:20:00.654Z,73.6
2023-01-03T12:21:00.829Z,73.5
2023-01-03T12:22:00.946Z,73.1
2023-01-03T12:23:01.133Z,73
2023-01-03T12:24:01.249Z,73.1
2023-01-03T12:25:05.259Z,72.9
2023-01-03T12:26:00.550Z,73.1
2023-01-03T12:27:00.711Z,72.2
2023-01-03T12:28:00.864Z,72.8
2023-01-03T12:29:01.010Z,73.4
2023-01-03T12:30:01.148Z,73.5
2023-01-03T12:31:00.356Z,73.6
2023-01-03T12:32:00.524Z,72.9
2023-01-03T12:33:00.584Z,73
2023-01-03T12:34:00.774Z,73.4
2023-01-03T12:35:00.891Z,72.6
2023-01-03T12:36:01.060Z,72.8
2023-01-03T12:37:01.174Z,73.3
2023-01-03T12:38:00.319Z,73.6
2023-01-03T12:39:00.489Z,73.7
2023-01-03T12:40:00.625Z,73
2023-01-03T12:41:00.771Z,72.8
2023-01-03T12:42:00.932Z,72.5
2023-01-03T12:43:01.070Z,72.6
2023-01-03T12:44:01.238Z,72.4
2023-01-03T12:45:00.375Z,72.6
2023-01-03T12:46:00.637Z,72.3
2023-01-03T12:47:00.744Z,73.2
2023-01-03T12:48:00.815Z,72.5
2023-01-03T12:49:01.502Z,72.5
2023-01-03T12:50:01.109Z,72
2023-01-03T12:51:01.259Z,72.2
2023-01-03T12:52:00.393Z,72.1
2023-01-03T12:53:00.543Z,71.7
2023-01-03T12:54:00.701Z,72.6
2023-01-03T12:55:00.848Z,72.8
2023-01-03T12:56:01.023Z,73.2
2023-01-03T12:57:01.140Z,72.5
2023-01-03T12:58:00.289Z,72.4
2023-01-03T12:59:00.454Z,72.6
2023-01-03T13:00:00.593Z,72.5
2023-01-03T13:01:00.761Z,73.2
2023-01-03T13:02:01.182Z,74
2023-01-03T13:03:01.218Z,72.3
2023-01-03T13:04:01.220Z,72.1
2023-01-03T13:05:00.319Z,72
2023-01-03T13:06:00.512Z,72.4
2023-01-03T13:07:00.618Z,72.2
2023-01-03T13:08:00.763Z,72.2
2023-01-03T13:09:00.927Z,72.3
2023-01-03T13:10:01.642Z,72.4
2023-01-03T13:11:01.238Z,72.3
2023-01-03T13:12:00.370Z,72.2
2023-01-03T13:13:00.530Z,72.7
2023-01-03T13:14:00.660Z,72.8
2023-01-03T13:15:00.822Z,72.9
2023-01-03T13:16:01.007Z,72.4
2023-01-03T13:17:01.122Z,72.6
2023-01-03T13:18:01.249Z,72.3
2023-01-03T13:19:00.391Z,72
2023-01-03T13:20:00.661Z,72.4
2023-01-03T13:21:00.712Z,72.8
2023-01-03T13:22:00.878Z,72.1
2023-01-03T13:23:01.000Z,71.5
2023-01-03T13:24:01.168Z,71.6
2023-01-03T13:25:00.318Z,72